Terminal Aerodrome Forecast
Issued by NWS

Home | Current Version | Previous Version | Text Only | Print | Product List | Glossary On
Versions: 1 2 3 4 5 6 7 8 9 10 11 12
683
FTUS43 KSGF 132327
TAFBBG
TAF
KBBG 132327Z 1400/1424 09008G15KT P6SM BKN250
     FM140500 13011G18KT P6SM OVC070
     FM140900 14011KT P6SM BKN025 OVC050 WS020/19035KT
      TEMPO 1409/1412 5SM -FZDZPL BR BKN015 OVC025
     FM141200 16019KT 4SM -FZDZ OVC015
     FM141800 17006KT 6SM BR SCT012 OVC015=

USA.gov is the U.S. government's official web portal to all federal, state and local government web resources and services.